sensor_id;sensor_type;location;lat;lon;timestamp;temperature;humidity
15596;DHT22;7898;48.658;9.068;2023-06-14T00:01:03;11.80;99.90
15596;DHT22;7898;48.658;9.068;2023-06-14T00:03:31;11.70;99.90
15596;DHT22;7898;48.658;9.068;2023-06-14T00:05:58;11.50;99.90
15596;DHT22;7898;48.658;9.068;2023-06-14T00:08:25;11.30;99.90
15596;DHT22;7898;48.658;9.068;2023-06-14T00:10:52;11.20;99.90
15596;DHT22;7898;48.658;9.068;2023-06-14T00:13:20;11.10;99.90
15596;DHT22;7898;48.658;9.068;2023-06-14T00:15:47;11.00;99.90
15596;DHT22;7898;48.658;9.068;2023-06-14T00:18:14;10.90;99.90
15596;DHT22;7898;48.658;9.068;2023-06-14T00:20:42;10.80;99.90
15596;DHT22;7898;48.658;9.068;2023-06-14T00:23:09;10.70;99.90
15596;DHT22;7898;48.658;9.068;2023-06-14T00:25:36;10.70;99.90
15596;DHT22;7898;48.658;9.068;2023-06-14T00:28:03;10.80;99.90
15596;DHT22;7898;48.658;9.068;2023-06-14T00:30:31;10.90;99.90
15596;DHT22;7898;48.658;9.068;2023-06-14T00:32:58;11.00;99.90
15596;DHT22;7898;48.658;9.068;2023-06-14T00:35:25;11.10;99.90
15596;DHT22;7898;48.658;9.068;2023-06-14T00:37:52;11.00;99.90
15596;DHT22;7898;48.658;9.068;2023-06-14T00:40:20;11.00;99.90
15596;DHT22;7898;48.658;9.068;2023-06-14T00:42:47;11.00;99.90
15596;DHT22;7898;48.658;9.068;2023-06-14T00:45:14;11.00;99.90
15596;DHT22;7898;48.658;9.068;2023-06-14T00:47:43;11.00;99.90
15596;DHT22;7898;48.658;9.068;2023-06-14T00:50:10;11.00;99.90
15596;DHT22;7898;48.658;9.068;2023-06-14T00:52:39;10.90;99.90
15596;DHT22;7898;48.658;9.068;2023-06-14T00:55:06;10.80;99.90
15596;DHT22;7898;48.658;9.068;2023-06-14T00:57:33;10.70;99.90
15596;DHT22;7898;48.658;9.068;2023-06-14T01:00:04;10.70;99.90
15596;DHT22;7898;48.658;9.068;2023-06-14T01:02:34;10.70;99.90
15596;DHT22;7898;48.658;9.068;2023-06-14T01:05:03;10.60;99.90
15596;DHT22;7898;48.658;9.068;2023-06-14T01:07:40;10.50;99.90
15596;DHT22;7898;48.658;9.068;2023-06-14T01:10:21;10.50;99.90
15596;DHT22;7898;48.658;9.068;2023-06-14T01:12:58;10.40;99.90
15596;DHT22;7898;48.658;9.068;2023-06-14T01:15:30;10.40;99.90
15596;DHT22;7898;48.658;9.068;2023-06-14T01:17:57;10.30;99.90
15596;DHT22;7898;48.658;9.068;2023-06-14T01:20:31;10.40;99.90
15596;DHT22;7898;48.658;9.068;2023-06-14T01:23:00;10.40;99.90
15596;DHT22;7898;48.658;9.068;2023-06-14T01:25:27;10.30;99.90
15596;DHT22;7898;48.658;9.068;2023-06-14T01:27:58;10.30;99.90
15596;DHT22;7898;48.658;9.068;2023-06-14T01:30:26;10.30;99.90
15596;DHT22;7898;48.658;9.068;2023-06-14T01:32:54;10.30;99.90
15596;DHT22;7898;48.658;9.068;2023-06-14T01:35:22;10.20;99.90
15596;DHT22;7898;48.658;9.068;2023-06-14T01:37:49;10.20;99.90
15596;DHT22;7898;48.658;9.068;2023-06-14T01:40:21;10.10;99.90
15596;DHT22;7898;48.658;9.068;2023-06-14T01:42:50;10.00;99.90
15596;DHT22;7898;48.658;9.068;2023-06-14T01:45:19;10.00;99.90
15596;DHT22;7898;48.658;9.068;2023-06-14T01:47:47;9.90;99.90
15596;DHT22;7898;48.658;9.068;2023-06-14T01:50:14;9.90;99.90
15596;DHT22;7898;48.658;9.068;2023-06-14T01:52:41;9.90;99.90
15596;DHT22;7898;48.658;9.068;2023-06-14T01:55:08;9.90;99.90
15596;DHT22;7898;48.658;9.068;2023-06-14T01:57:36;9.80;99.90
15596;DHT22;7898;48.658;9.068;2023-06-14T02:00:04;9.90;99.90
15596;DHT22;7898;48.658;9.068;2023-06-14T02:02:36;9.80;99.90
15596;DHT22;7898;48.658;9.068;2023-06-14T02:05:03;9.80;99.90
15596;DHT22;7898;48.658;9.068;2023-06-14T02:07:30;9.90;99.90
15596;DHT22;7898;48.658;9.068;2023-06-14T02:09:57;9.90;99.90
15596;DHT22;7898;48.658;9.068;2023-06-14T02:12:24;10.00;99.90
15596;DHT22;7898;48.658;9.068;2023-06-14T02:14:52;9.90;99.90
15596;DHT22;7898;48.658;9.068;2023-06-14T02:17:19;9.90;99.90
15596;DHT22;7898;48.658;9.068;2023-06-14T02:19:46;9.90;99.90
15596;DHT22;7898;48.658;9.068;2023-06-14T02:22:13;9.80;99.90
15596;DHT22;7898;48.658;9.068;2023-06-14T02:24:41;9.70;99.90
15596;DHT22;7898;48.658;9.068;2023-06-14T02:27:08;9.60;99.90
15596;DHT22;7898;48.658;9.068;2023-06-14T02:29:36;9.60;99.90
15596;DHT22;7898;48.658;9.068;2023-06-14T02:32:06;9.50;99.90
15596;DHT22;7898;48.658;9.068;2023-06-14T02:34:33;9.50;99.90
15596;DHT22;7898;48.658;9.068;2023-06-14T02:37:00;9.50;99.90
15596;DHT22;7898;48.658;9.068;2023-06-14T02:39:28;9.50;99.90
15596;DHT22;7898;48.658;9.068;2023-06-14T02:41:55;9.50;99.90
15596;DHT22;7898;48.658;9.068;2023-06-14T02:44:24;9.40;99.90
15596;DHT22;7898;48.658;9.068;2023-06-14T02:46:52;9.50;99.90
15596;DHT22;7898;48.658;9.068;2023-06-14T02:49:20;9.50;99.90
15596;DHT22;7898;48.658;9.068;2023-06-14T02:51:47;9.50;99.90
15596;DHT22;7898;48.658;9.068;2023-06-14T02:54:14;9.40;99.90
15596;DHT22;7898;48.658;9.068;2023-06-14T02:56:41;9.40;99.90
15596;DHT22;7898;48.658;9.068;2023-06-14T02:59:08;9.40;99.90
15596;DHT22;7898;48.658;9.068;2023-06-14T03:01:35;9.40;99.90
15596;DHT22;7898;48.658;9.068;2023-06-14T03:04:06;9.30;99.90
15596;DHT22;7898;48.658;9.068;2023-06-14T03:06:34;9.30;99.90
15596;DHT22;7898;48.658;9.068;2023-06-14T03:09:02;9.30;99.90
15596;DHT22;7898;48.658;9.068;2023-06-14T03:11:30;9.30;99.90
15596;DHT22;7898;48.658;9.068;2023-06-14T03:13:57;9.20;99.90
15596;DHT22;7898;48.658;9.068;2023-06-14T03:16:24;9.20;99.90
15596;DHT22;7898;48.658;9.068;2023-06-14T03:18:54;9.10;99.90
15596;DHT22;7898;48.658;9.068;2023-06-14T03:21:21;9.10;99.90
15596;DHT22;7898;48.658;9.068;2023-06-14T03:23:49;9.10;99.90
15596;DHT22;7898;48.658;9.068;2023-06-14T03:26:16;9.20;99.90
15596;DHT22;7898;48.658;9.068;2023-06-14T03:28:44;9.10;99.90
15596;DHT22;7898;48.658;9.068;2023-06-14T03:31:11;9.10;99.90
15596;DHT22;7898;48.658;9.068;2023-06-14T03:33:38;9.10;99.90
15596;DHT22;7898;48.658;9.068;2023-06-14T03:36:05;9.10;99.90
15596;DHT22;7898;48.658;9.068;2023-06-14T03:38:33;9.10;99.90
15596;DHT22;7898;48.658;9.068;2023-06-14T03:41:02;9.10;99.90
15596;DHT22;7898;48.658;9.068;2023-06-14T03:43:28;9.10;99.90
15596;DHT22;7898;48.658;9.068;2023-06-14T03:45:55;9.10;99.90
15596;DHT22;7898;48.658;9.068;2023-06-14T03:48:22;9.10;99.90
15596;DHT22;7898;48.658;9.068;2023-06-14T03:50:49;9.10;99.90
15596;DHT22;7898;48.658;9.068;2023-06-14T03:53:16;9.10;99.90
15596;DHT22;7898;48.658;9.068;2023-06-14T03:55:45;9.20;99.90
15596;DHT22;7898;48.658;9.068;2023-06-14T03:58:15;9.20;99.90
15596;DHT22;7898;48.658;9.068;2023-06-14T04:00:42;9.30;99.90
15596;DHT22;7898;48.658;9.068;2023-06-14T04:03:10;9.30;99.90
15596;DHT22;7898;48.658;9.068;2023-06-14T04:05:38;9.20;99.90
15596;DHT22;7898;48.658;9.068;2023-06-14T04:08:07;9.20;99.90
15596;DHT22;7898;48.658;9.068;2023-06-14T04:10:35;9.20;99.90
15596;DHT22;7898;48.658;9.068;2023-06-14T04:13:01;9.20;99.90
15596;DHT22;7898;48.658;9.068;2023-06-14T04:15:30;9.30;99.90
15596;DHT22;7898;48.658;9.068;2023-06-14T04:17:57;9.40;99.90
15596;DHT22;7898;48.658;9.068;2023-06-14T04:20:24;9.50;99.90
15596;DHT22;7898;48.658;9.068;2023-06-14T04:22:51;9.50;99.90
15596;DHT22;7898;48.658;9.068;2023-06-14T04:25:18;9.60;99.90
15596;DHT22;7898;48.658;9.068;2023-06-14T04:27:45;9.60;99.90
15596;DHT22;7898;48.658;9.068;2023-06-14T04:30:12;9.70;99.90
15596;DHT22;7898;48.658;9.068;2023-06-14T04:32:41;9.80;99.90
15596;DHT22;7898;48.658;9.068;2023-06-14T04:35:08;9.90;99.90
15596;DHT22;7898;48.658;9.068;2023-06-14T04:37:36;10.00;99.90
15596;DHT22;7898;48.658;9.068;2023-06-14T04:40:06;10.10;99.90
15596;DHT22;7898;48.658;9.068;2023-06-14T04:42:33;10.20;99.90
15596;DHT22;7898;48.658;9.068;2023-06-14T04:45:02;10.30;99.90
15596;DHT22;7898;48.658;9.068;2023-06-14T04:47:30;10.40;99.90
15596;DHT22;7898;48.658;9.068;2023-06-14T04:49:59;10.50;99.90
15596;DHT22;7898;48.658;9.068;2023-06-14T04:52:28;10.70;99.90
15596;DHT22;7898;48.658;9.068;2023-06-14T04:54:57;10.80;99.90
15596;DHT22;7898;48.658;9.068;2023-06-14T04:57:24;10.90;99.90
15596;DHT22;7898;48.658;9.068;2023-06-14T04:59:51;11.00;99.90
15596;DHT22;7898;48.658;9.068;2023-06-14T05:02:21;11.20;99.90
15596;DHT22;7898;48.658;9.068;2023-06-14T05:04:48;11.30;99.90
15596;DHT22;7898;48.658;9.068;2023-06-14T05:07:16;11.50;99.90
15596;DHT22;7898;48.658;9.068;2023-06-14T05:09:44;11.60;99.90
15596;DHT22;7898;48.658;9.068;2023-06-14T05:12:11;11.70;99.90
15596;DHT22;7898;48.658;9.068;2023-06-14T05:14:38;11.90;99.90
15596;DHT22;7898;48.658;9.068;2023-06-14T05:17:06;12.10;99.90
15596;DHT22;7898;48.658;9.068;2023-06-14T05:19:33;12.30;99.90
15596;DHT22;7898;48.658;9.068;2023-06-14T05:21:59;12.40;99.90
15596;DHT22;7898;48.658;9.068;2023-06-14T05:24:29;12.60;99.90
15596;DHT22;7898;48.658;9.068;2023-06-14T05:26:57;12.70;99.90
15596;DHT22;7898;48.658;9.068;2023-06-14T05:29:24;12.90;99.90
15596;DHT22;7898;48.658;9.068;2023-06-14T05:31:51;13.00;99.90
15596;DHT22;7898;48.658;9.068;2023-06-14T05:34:18;13.20;99.90
15596;DHT22;7898;48.658;9.068;2023-06-14T05:36:45;13.30;99.90
15596;DHT22;7898;48.658;9.068;2023-06-14T05:39:12;13.50;99.90
15596;DHT22;7898;48.658;9.068;2023-06-14T05:41:41;13.60;99.90
15596;DHT22;7898;48.658;9.068;2023-06-14T05:44:08;13.80;99.90
15596;DHT22;7898;48.658;9.068;2023-06-14T05:46:35;14.00;99.90
15596;DHT22;7898;48.658;9.068;2023-06-14T05:49:02;14.20;99.90
15596;DHT22;7898;48.658;9.068;2023-06-14T05:51:28;14.40;99.90
15596;DHT22;7898;48.658;9.068;2023-06-14T05:53:55;14.70;99.90
15596;DHT22;7898;48.658;9.068;2023-06-14T05:56:22;14.90;99.90
15596;DHT22;7898;48.658;9.068;2023-06-14T05:58:50;15.10;99.90
15596;DHT22;7898;48.658;9.068;2023-06-14T06:01:17;15.40;99.90
15596;DHT22;7898;48.658;9.068;2023-06-14T06:03:44;15.60;99.90
15596;DHT22;7898;48.658;9.068;2023-06-14T06:06:13;15.80;99.90
15596;DHT22;7898;48.658;9.068;2023-06-14T06:08:40;16.10;99.90
15596;DHT22;7898;48.658;9.068;2023-06-14T06:11:08;16.20;99.90
15596;DHT22;7898;48.658;9.068;2023-06-14T06:13:35;16.40;99.90
15596;DHT22;7898;48.658;9.068;2023-06-14T06:16:04;16.60;99.90
15596;DHT22;7898;48.658;9.068;2023-06-14T06:18:30;16.80;99.90
15596;DHT22;7898;48.658;9.068;2023-06-14T06:20:57;17.00;99.90
15596;DHT22;7898;48.658;9.068;2023-06-14T06:23:24;17.20;99.90
15596;DHT22;7898;48.658;9.068;2023-06-14T06:25:51;17.50;99.90
15596;DHT22;7898;48.658;9.068;2023-06-14T06:28:19;17.60;99.90
15596;DHT22;7898;48.658;9.068;2023-06-14T06:30:46;17.80;99.90
15596;DHT22;7898;48.658;9.068;2023-06-14T06:33:14;18.00;99.90
15596;DHT22;7898;48.658;9.068;2023-06-14T06:35:41;18.10;99.90
15596;DHT22;7898;48.658;9.068;2023-06-14T06:38:08;18.20;99.90
15596;DHT22;7898;48.658;9.068;2023-06-14T06:40:35;18.40;99.90
15596;DHT22;7898;48.658;9.068;2023-06-14T06:43:02;18.50;99.90
15596;DHT22;7898;48.658;9.068;2023-06-14T06:45:29;18.60;99.90
15596;DHT22;7898;48.658;9.068;2023-06-14T06:47:56;18.80;99.90
15596;DHT22;7898;48.658;9.068;2023-06-14T06:50:24;18.80;99.90
15596;DHT22;7898;48.658;9.068;2023-06-14T06:52:51;18.90;99.90
15596;DHT22;7898;48.658;9.068;2023-06-14T06:55:18;19.10;99.90
15596;DHT22;7898;48.658;9.068;2023-06-14T06:57:45;19.50;99.90
15596;DHT22;7898;48.658;9.068;2023-06-14T07:00:13;19.70;99.90
15596;DHT22;7898;48.658;9.068;2023-06-14T07:02:39;20.00;99.90
15596;DHT22;7898;48.658;9.068;2023-06-14T07:05:06;20.30;99.90
15596;DHT22;7898;48.658;9.068;2023-06-14T07:07:35;20.60;99.90
15596;DHT22;7898;48.658;9.068;2023-06-14T07:10:02;20.90;99.90
15596;DHT22;7898;48.658;9.068;2023-06-14T07:12:30;21.20;99.90
15596;DHT22;7898;48.658;9.068;2023-06-14T07:14:59;21.50;99.90
15596;DHT22;7898;48.658;9.068;2023-06-14T07:17:26;22.00;99.90
15596;DHT22;7898;48.658;9.068;2023-06-14T07:19:53;22.40;99.90
15596;DHT22;7898;48.658;9.068;2023-06-14T07:22:20;22.80;99.90
15596;DHT22;7898;48.658;9.068;2023-06-14T07:24:48;23.30;99.90
15596;DHT22;7898;48.658;9.068;2023-06-14T07:27:15;23.60;99.90
15596;DHT22;7898;48.658;9.068;2023-06-14T07:29:42;23.80;99.60
15596;DHT22;7898;48.658;9.068;2023-06-14T07:32:09;24.00;99.10
15596;DHT22;7898;48.658;9.068;2023-06-14T07:34:35;24.10;99.00
15596;DHT22;7898;48.658;9.068;2023-06-14T07:37:03;24.00;97.00
15596;DHT22;7898;48.658;9.068;2023-06-14T07:39:30;23.90;99.10
15596;DHT22;7898;48.658;9.068;2023-06-14T07:41:58;23.80;98.10
15596;DHT22;7898;48.658;9.068;2023-06-14T07:44:29;23.90;97.50
15596;DHT22;7898;48.658;9.068;2023-06-14T07:46:56;23.90;96.90
15596;DHT22;7898;48.658;9.068;2023-06-14T07:49:25;23.80;95.80
15596;DHT22;7898;48.658;9.068;2023-06-14T07:51:52;23.50;96.40
15596;DHT22;7898;48.658;9.068;2023-06-14T07:54:19;23.20;97.20
15596;DHT22;7898;48.658;9.068;2023-06-14T07:56:50;23.20;97.90
15596;DHT22;7898;48.658;9.068;2023-06-14T07:59:18;23.30;97.40
15596;DHT22;7898;48.658;9.068;2023-06-14T08:01:45;23.50;98.20
15596;DHT22;7898;48.658;9.068;2023-06-14T08:04:13;23.50;97.90
15596;DHT22;7898;48.658;9.068;2023-06-14T08:06:40;23.60;98.00
15596;DHT22;7898;48.658;9.068;2023-06-14T08:09:09;23.90;98.10
15596;DHT22;7898;48.658;9.068;2023-06-14T08:11:36;24.00;97.60
15596;DHT22;7898;48.658;9.068;2023-06-14T08:14:03;24.20;97.40
15596;DHT22;7898;48.658;9.068;2023-06-14T08:16:31;24.10;96.80
15596;DHT22;7898;48.658;9.068;2023-06-14T08:18:58;24.10;96.80
15596;DHT22;7898;48.658;9.068;2023-06-14T08:21:25;24.20;97.30
15596;DHT22;7898;48.658;9.068;2023-06-14T08:23:54;24.30;97.60
15596;DHT22;7898;48.658;9.068;2023-06-14T08:26:21;24.20;96.70
15596;DHT22;7898;48.658;9.068;2023-06-14T08:28:48;24.30;96.00
15596;DHT22;7898;48.658;9.068;2023-06-14T08:31:15;24.20;97.10
15596;DHT22;7898;48.658;9.068;2023-06-14T08:33:44;24.30;96.80
15596;DHT22;7898;48.658;9.068;2023-06-14T08:36:11;24.30;96.40
15596;DHT22;7898;48.658;9.068;2023-06-14T08:38:38;24.20;96.10
15596;DHT22;7898;48.658;9.068;2023-06-14T08:41:05;24.30;95.80
15596;DHT22;7898;48.658;9.068;2023-06-14T08:43:33;24.40;96.40
15596;DHT22;7898;48.658;9.068;2023-06-14T08:46:03;24.50;95.40
15596;DHT22;7898;48.658;9.068;2023-06-14T08:48:30;24.50;96.30
15596;DHT22;7898;48.658;9.068;2023-06-14T08:51:01;24.30;95.10
15596;DHT22;7898;48.658;9.068;2023-06-14T08:53:30;24.30;96.00
15596;DHT22;7898;48.658;9.068;2023-06-14T08:55:59;24.40;96.40
15596;DHT22;7898;48.658;9.068;2023-06-14T08:58:27;24.40;94.40
15596;DHT22;7898;48.658;9.068;2023-06-14T09:00:55;24.30;94.70
15596;DHT22;7898;48.658;9.068;2023-06-14T09:03:23;24.40;95.00
15596;DHT22;7898;48.658;9.068;2023-06-14T09:05:55;24.50;96.00
15596;DHT22;7898;48.658;9.068;2023-06-14T09:08:25;24.60;97.00
15596;DHT22;7898;48.658;9.068;2023-06-14T09:10:56;24.60;95.10
15596;DHT22;7898;48.658;9.068;2023-06-14T09:13:23;24.60;96.10
15596;DHT22;7898;48.658;9.068;2023-06-14T09:15:50;24.60;96.10
15596;DHT22;7898;48.658;9.068;2023-06-14T09:18:17;24.60;96.50
15596;DHT22;7898;48.658;9.068;2023-06-14T09:20:45;24.70;96.00
15596;DHT22;7898;48.658;9.068;2023-06-14T09:23:14;24.70;94.80
15596;DHT22;7898;48.658;9.068;2023-06-14T09:25:48;24.60;95.50
15596;DHT22;7898;48.658;9.068;2023-06-14T09:28:15;24.70;96.70
15596;DHT22;7898;48.658;9.068;2023-06-14T09:30:42;24.80;95.50
15596;DHT22;7898;48.658;9.068;2023-06-14T09:33:09;24.80;95.00
15596;DHT22;7898;48.658;9.068;2023-06-14T09:35:36;24.80;96.30
15596;DHT22;7898;48.658;9.068;2023-06-14T09:38:03;24.80;96.00
15596;DHT22;7898;48.658;9.068;2023-06-14T09:40:34;24.90;95.00
15596;DHT22;7898;48.658;9.068;2023-06-14T09:43:05;24.80;95.00
15596;DHT22;7898;48.658;9.068;2023-06-14T09:45:33;24.90;94.40
15596;DHT22;7898;48.658;9.068;2023-06-14T09:48:01;24.90;95.50
15596;DHT22;7898;48.658;9.068;2023-06-14T09:50:28;24.90;95.10
15596;DHT22;7898;48.658;9.068;2023-06-14T09:53:00;24.90;94.30
15596;DHT22;7898;48.658;9.068;2023-06-14T09:55:31;24.80;94.10
15596;DHT22;7898;48.658;9.068;2023-06-14T09:58:05;24.80;94.90
15596;DHT22;7898;48.658;9.068;2023-06-14T10:00:33;24.90;94.20
15596;DHT22;7898;48.658;9.068;2023-06-14T10:03:04;24.90;92.70
15596;DHT22;7898;48.658;9.068;2023-06-14T10:05:35;25.00;92.40
15596;DHT22;7898;48.658;9.068;2023-06-14T10:08:07;25.00;92.30
15596;DHT22;7898;48.658;9.068;2023-06-14T10:10:35;24.60;92.60
15596;DHT22;7898;48.658;9.068;2023-06-14T10:13:02;24.10;92.10
15596;DHT22;7898;48.658;9.068;2023-06-14T10:15:32;24.00;93.30
15596;DHT22;7898;48.658;9.068;2023-06-14T10:18:07;24.10;93.00
15596;DHT22;7898;48.658;9.068;2023-06-14T10:20:45;24.10;93.60
15596;DHT22;7898;48.658;9.068;2023-06-14T10:23:18;24.30;93.80
15596;DHT22;7898;48.658;9.068;2023-06-14T10:25:50;24.60;94.20
15596;DHT22;7898;48.658;9.068;2023-06-14T10:28:17;24.80;92.80
15596;DHT22;7898;48.658;9.068;2023-06-14T10:31:08;24.80;91.80
15596;DHT22;7898;48.658;9.068;2023-06-14T10:33:39;24.90;93.70
15596;DHT22;7898;48.658;9.068;2023-06-14T10:36:10;24.80;94.10
15596;DHT22;7898;48.658;9.068;2023-06-14T10:38:57;24.50;94.20
15596;DHT22;7898;48.658;9.068;2023-06-14T10:41:26;24.40;93.90
15596;DHT22;7898;48.658;9.068;2023-06-14T10:46:54;24.40;92.90
15596;DHT22;7898;48.658;9.068;2023-06-14T10:49:37;24.30;93.60
15596;DHT22;7898;48.658;9.068;2023-06-14T10:52:08;24.30;93.00
15596;DHT22;7898;48.658;9.068;2023-06-14T10:55:00;24.50;93.80
15596;DHT22;7898;48.658;9.068;2023-06-14T10:57:29;24.80;93.50
15596;DHT22;7898;48.658;9.068;2023-06-14T10:59:57;24.90;92.80
15596;DHT22;7898;48.658;9.068;2023-06-14T11:02:51;24.80;92.60
15596;DHT22;7898;48.658;9.068;2023-06-14T11:05:24;24.40;92.50
15596;DHT22;7898;48.658;9.068;2023-06-14T11:08:04;24.50;92.70
15596;DHT22;7898;48.658;9.068;2023-06-14T11:10:37;24.50;92.30
15596;DHT22;7898;48.658;9.068;2023-06-14T11:13:05;24.80;92.90
15596;DHT22;7898;48.658;9.068;2023-06-14T11:15:33;25.00;91.90
15596;DHT22;7898;48.658;9.068;2023-06-14T11:18:02;25.00;90.70
15596;DHT22;7898;48.658;9.068;2023-06-14T11:20:32;24.60;91.70
15596;DHT22;7898;48.658;9.068;2023-06-14T11:22:59;24.40;93.70
15596;DHT22;7898;48.658;9.068;2023-06-14T11:25:26;24.50;94.10
15596;DHT22;7898;48.658;9.068;2023-06-14T11:27:55;24.70;92.30
15596;DHT22;7898;48.658;9.068;2023-06-14T11:30:22;24.80;91.60
15596;DHT22;7898;48.658;9.068;2023-06-14T11:32:52;25.00;91.50
15596;DHT22;7898;48.658;9.068;2023-06-14T11:35:22;25.10;92.50
15596;DHT22;7898;48.658;9.068;2023-06-14T11:37:50;25.20;92.00
15596;DHT22;7898;48.658;9.068;2023-06-14T11:40:19;25.20;91.30
15596;DHT22;7898;48.658;9.068;2023-06-14T11:42:46;25.00;91.70
15596;DHT22;7898;48.658;9.068;2023-06-14T11:45:13;24.80;92.40
15596;DHT22;7898;48.658;9.068;2023-06-14T11:47:40;24.80;92.10
15596;DHT22;7898;48.658;9.068;2023-06-14T11:50:08;24.90;92.20
15596;DHT22;7898;48.658;9.068;2023-06-14T11:52:37;25.00;92.50
15596;DHT22;7898;48.658;9.068;2023-06-14T11:55:05;24.90;92.60
15596;DHT22;7898;48.658;9.068;2023-06-14T11:57:34;24.90;93.40
15596;DHT22;7898;48.658;9.068;2023-06-14T12:00:03;25.00;92.50
15596;DHT22;7898;48.658;9.068;2023-06-14T12:02:33;24.80;93.50
15596;DHT22;7898;48.658;9.068;2023-06-14T12:05:05;24.50;93.00
15596;DHT22;7898;48.658;9.068;2023-06-14T12:07:33;24.40;93.20
15596;DHT22;7898;48.658;9.068;2023-06-14T12:10:08;24.50;93.50
15596;DHT22;7898;48.658;9.068;2023-06-14T12:12:37;24.60;93.50
15596;DHT22;7898;48.658;9.068;2023-06-14T12:15:05;24.80;92.80
15596;DHT22;7898;48.658;9.068;2023-06-14T12:17:33;24.90;93.70
15596;DHT22;7898;48.658;9.068;2023-06-14T12:20:05;25.00;92.30
15596;DHT22;7898;48.658;9.068;2023-06-14T12:22:36;25.00;93.00
15596;DHT22;7898;48.658;9.068;2023-06-14T12:25:04;25.00;91.90
15596;DHT22;7898;48.658;9.068;2023-06-14T12:27:32;25.00;91.60
15596;DHT22;7898;48.658;9.068;2023-06-14T12:30:00;25.00;92.00
15596;DHT22;7898;48.658;9.068;2023-06-14T12:32:28;25.20;91.40
15596;DHT22;7898;48.658;9.068;2023-06-14T12:34:55;25.20;90.60
15596;DHT22;7898;48.658;9.068;2023-06-14T12:37:22;25.40;91.70
15596;DHT22;7898;48.658;9.068;2023-06-14T12:39:49;25.50;91.60
15596;DHT22;7898;48.658;9.068;2023-06-14T12:42:17;25.50;91.70
15596;DHT22;7898;48.658;9.068;2023-06-14T12:44:45;25.50;90.70
15596;DHT22;7898;48.658;9.068;2023-06-14T12:47:12;25.40;91.30
15596;DHT22;7898;48.658;9.068;2023-06-14T12:49:39;25.10;91.10
15596;DHT22;7898;48.658;9.068;2023-06-14T12:52:08;24.80;91.50
15596;DHT22;7898;48.658;9.068;2023-06-14T12:54:35;24.40;90.90
15596;DHT22;7898;48.658;9.068;2023-06-14T12:57:02;24.10;91.40
15596;DHT22;7898;48.658;9.068;2023-06-14T12:59:29;24.00;90.10
15596;DHT22;7898;48.658;9.068;2023-06-14T13:02:11;24.20;91.50
15596;DHT22;7898;48.658;9.068;2023-06-14T13:04:37;24.60;91.30
15596;DHT22;7898;48.658;9.068;2023-06-14T13:07:05;24.80;90.80
15596;DHT22;7898;48.658;9.068;2023-06-14T13:09:32;25.00;91.60
15596;DHT22;7898;48.658;9.068;2023-06-14T13:11:59;25.20;92.00
15596;DHT22;7898;48.658;9.068;2023-06-14T13:14:26;25.00;90.80
15596;DHT22;7898;48.658;9.068;2023-06-14T13:16:53;24.80;92.00
15596;DHT22;7898;48.658;9.068;2023-06-14T13:19:22;24.50;92.00
15596;DHT22;7898;48.658;9.068;2023-06-14T13:22:02;24.50;91.10
15596;DHT22;7898;48.658;9.068;2023-06-14T13:24:29;24.60;91.00
15596;DHT22;7898;48.658;9.068;2023-06-14T13:26:56;24.80;91.30
15596;DHT22;7898;48.658;9.068;2023-06-14T13:29:24;25.20;92.30
15596;DHT22;7898;48.658;9.068;2023-06-14T13:31:52;25.60;90.90
15596;DHT22;7898;48.658;9.068;2023-06-14T13:34:19;25.80;90.00
15596;DHT22;7898;48.658;9.068;2023-06-14T13:36:49;26.00;90.30
15596;DHT22;7898;48.658;9.068;2023-06-14T13:39:16;26.20;91.50
15596;DHT22;7898;48.658;9.068;2023-06-14T13:41:43;26.50;90.70
15596;DHT22;7898;48.658;9.068;2023-06-14T13:44:10;26.80;90.50
15596;DHT22;7898;48.658;9.068;2023-06-14T13:46:39;27.10;89.80
15596;DHT22;7898;48.658;9.068;2023-06-14T13:49:08;27.30;90.00
15596;DHT22;7898;48.658;9.068;2023-06-14T13:51:35;27.50;89.40
15596;DHT22;7898;48.658;9.068;2023-06-14T13:54:04;27.70;88.30
15596;DHT22;7898;48.658;9.068;2023-06-14T13:56:31;27.40;87.80
15596;DHT22;7898;48.658;9.068;2023-06-14T13:58:58;27.30;86.90
15596;DHT22;7898;48.658;9.068;2023-06-14T14:01:25;26.70;86.80
15596;DHT22;7898;48.658;9.068;2023-06-14T14:03:54;26.30;88.50
15596;DHT22;7898;48.658;9.068;2023-06-14T14:06:21;26.00;89.00
15596;DHT22;7898;48.658;9.068;2023-06-14T14:08:48;26.00;89.10
15596;DHT22;7898;48.658;9.068;2023-06-14T14:11:16;25.80;90.60
15596;DHT22;7898;48.658;9.068;2023-06-14T14:13:43;25.60;89.90
15596;DHT22;7898;48.658;9.068;2023-06-14T14:16:10;25.60;90.70
15596;DHT22;7898;48.658;9.068;2023-06-14T14:18:38;25.60;89.80
15596;DHT22;7898;48.658;9.068;2023-06-14T14:21:05;25.80;90.10
15596;DHT22;7898;48.658;9.068;2023-06-14T14:23:32;26.40;90.80
15596;DHT22;7898;48.658;9.068;2023-06-14T14:25:59;26.90;89.70
15596;DHT22;7898;48.658;9.068;2023-06-14T14:28:30;27.30;87.80
15596;DHT22;7898;48.658;9.068;2023-06-14T14:30:58;27.70;87.70
15596;DHT22;7898;48.658;9.068;2023-06-14T14:33:25;27.90;87.10
15596;DHT22;7898;48.658;9.068;2023-06-14T14:35:52;28.00;85.90
15596;DHT22;7898;48.658;9.068;2023-06-14T14:38:19;28.00;86.60
15596;DHT22;7898;48.658;9.068;2023-06-14T14:40:45;28.10;85.90
15596;DHT22;7898;48.658;9.068;2023-06-14T14:43:12;27.80;85.70
15596;DHT22;7898;48.658;9.068;2023-06-14T14:45:41;27.20;85.50
15596;DHT22;7898;48.658;9.068;2023-06-14T14:48:08;26.50;86.90
15596;DHT22;7898;48.658;9.068;2023-06-14T14:50:34;26.10;88.10
15596;DHT22;7898;48.658;9.068;2023-06-14T14:53:01;25.70;89.00
15596;DHT22;7898;48.658;9.068;2023-06-14T14:55:28;25.60;90.00
15596;DHT22;7898;48.658;9.068;2023-06-14T14:57:56;26.00;87.40
15596;DHT22;7898;48.658;9.068;2023-06-14T15:00:23;26.60;87.50
15596;DHT22;7898;48.658;9.068;2023-06-14T15:02:51;26.90;86.10
15596;DHT22;7898;48.658;9.068;2023-06-14T15:05:18;27.20;86.80
15596;DHT22;7898;48.658;9.068;2023-06-14T15:07:45;27.40;85.60
15596;DHT22;7898;48.658;9.068;2023-06-14T15:10:12;27.70;85.70
15596;DHT22;7898;48.658;9.068;2023-06-14T15:12:39;27.90;85.60
15596;DHT22;7898;48.658;9.068;2023-06-14T15:15:06;27.80;85.70
15596;DHT22;7898;48.658;9.068;2023-06-14T15:17:35;27.30;84.80
15596;DHT22;7898;48.658;9.068;2023-06-14T15:20:03;27.20;86.50
15596;DHT22;7898;48.658;9.068;2023-06-14T15:22:31;27.20;87.40
15596;DHT22;7898;48.658;9.068;2023-06-14T15:24:58;27.10;86.90
15596;DHT22;7898;48.658;9.068;2023-06-14T15:27:25;26.80;89.60
15596;DHT22;7898;48.658;9.068;2023-06-14T15:29:53;27.00;88.80
15596;DHT22;7898;48.658;9.068;2023-06-14T15:32:20;27.10;87.80
15596;DHT22;7898;48.658;9.068;2023-06-14T15:34:47;27.40;89.50
15596;DHT22;7898;48.658;9.068;2023-06-14T15:37:15;27.50;86.80
15596;DHT22;7898;48.658;9.068;2023-06-14T15:39:42;27.70;86.30
15596;DHT22;7898;48.658;9.068;2023-06-14T15:42:09;27.60;86.60
15596;DHT22;7898;48.658;9.068;2023-06-14T15:44:37;28.20;86.70
15596;DHT22;7898;48.658;9.068;2023-06-14T15:47:04;28.30;86.10
15596;DHT22;7898;48.658;9.068;2023-06-14T15:49:32;28.20;86.90
15596;DHT22;7898;48.658;9.068;2023-06-14T15:51:59;28.00;85.70
15596;DHT22;7898;48.658;9.068;2023-06-14T15:54:28;28.00;87.10
15596;DHT22;7898;48.658;9.068;2023-06-14T15:56:55;28.20;87.20
15596;DHT22;7898;48.658;9.068;2023-06-14T15:59:22;28.10;86.50